CDT,Max TemperatureF,Mean TemperatureF,Min TemperatureF,Max Dew PointF,MeanDew PointF,Min DewpointF,Max Humidity, Mean Humidity, Min Humidity, Max Sea Level PressureIn, Mean Sea Level PressureIn, Min Sea Level PressureIn, Max VisibilityMiles, Mean VisibilityMiles, Min VisibilityMiles, Max Wind SpeedMPH, Mean Wind SpeedMPH, Max Gust SpeedMPH,PrecipitationIn, CloudCover, Events, WindDirDegrees
2011-10-1,82,66,50,49,39,31,86,44,15,30.22,30.15,30.10,10,10,10,9,2,,0.00,0,,29
2011-10-2,81,63,46,44,39,31,86,46,17,30.29,30.21,30.14,10,10,10,8,2,,0.00,0,,56
2011-10-3,82,64,45,49,40,30,89,51,16,30.29,30.21,30.15,10,10,10,7,1,,0.00,0,,264
2011-10-4,86,67,50,47,41,33,80,46,16,30.28,30.19,30.12,10,10,10,7,1,,0.00,0,,132
2011-10-5,87,68,50,49,45,40,93,51,20,30.20,30.12,30.04,10,10,10,8,1,,0.00,0,,142
2011-10-6,88,72,55,61,52,47,78,48,26,30.13,30.07,30.01,10,10,10,15,5,21,0.00,0,,142
2011-10-7,88,76,63,63,59,56,87,59,35,30.16,30.10,30.05,10,10,10,15,9,23,0.00,0,,135
2011-10-8,91,77,64,62,58,54,90,56,30,30.13,30.07,29.99,10,10,10,20,8,26,0.00,0,,127
2011-10-9,88,76,66,60,57,53,79,53,32,30.09,30.02,29.94,10,10,10,17,8,22,0.00,1,,113
2011-10-10,86,75,64,64,61,58,93,67,46,30.06,29.98,29.92,10,10,10,7,4,,0.00,3,,106
2011-10-11,88,74,60,63,59,57,97,66,35,29.95,29.88,29.79,10,10,10,8,1,,0.00,0,,89
2011-10-12,79,71,64,64,61,59,90,72,56,29.84,29.80,29.75,10,10,10,13,6,18,0.03,1,Rain,228
2011-10-13,84,72,57,64,51,41,87,52,23,29.91,29.84,29.78,10,10,10,12,7,21,0.00,0,,313
2011-10-14,86,68,51,51,44,34,86,51,16,30.00,29.95,29.91,10,10,10,7,1,,0.00,0,,135
2011-10-15,90,71,54,51,46,39,80,50,18,30.11,30.03,29.98,10,10,10,6,1,,0.00,0,,114
2011-10-16,91,74,57,57,51,44,87,44,21,30.10,30.02,29.94,10,10,10,10,6,16,0.00,0,,188
2011-10-17,87,73,60,65,62,57,100,72,40,29.96,29.87,29.68,10,8,1,16,7,21,0.00,3,,187
2011-10-18,75,62,48,66,53,40,94,78,48,29.95,29.83,29.69,10,10,8,20,9,29,0.12,6,Rain-Thunderstorm,305
2011-10-19,66,55,44,39,29,21,71,40,19,30.06,29.98,29.93,10,10,10,26,10,39,0.00,0,,317
2011-10-20,70,54,37,41,29,22,80,47,18,30.15,30.09,30.04,10,10,10,10,2,20,0.00,0,,332
2011-10-21,78,59,41,48,40,30,93,51,22,30.23,30.15,30.10,10,10,10,12,3,16,0.00,1,,119
2011-10-22,84,70,55,59,54,46,77,59,41,30.14,30.06,29.97,10,10,10,9,6,,0.00,2,,150
2011-10-23,73,66,59,63,61,58,100,85,68,30.11,30.04,29.98,10,9,1,22,6,37,0.40,4,Rain-Thunderstorm,294
2011-10-24,82,66,51,60,55,51,100,88,39,30.23,30.15,30.12,10,4,0,6,1,,0.01,1,Fog,72
2011-10-25,86,70,57,58,53,48,83,57,33,30.18,30.09,29.99,10,10,10,14,6,16,0.00,1,,163
2011-10-26,84,74,64,64,62,58,94,71,41,30.01,29.94,29.85,10,10,10,14,9,16,0.00,3,,183
2011-10-27,73,62,51,66,58,51,100,90,75,30.02,29.93,29.85,10,9,2,16,6,23,0.59,7,Rain,18
2011-10-28,61,54,46,50,44,36,96,78,39,30.25,30.13,30.01,10,10,8,12,8,21,0.13,6,Rain,360
2011-10-29,66,52,39,42,36,29,93,63,26,30.31,30.22,30.14,10,10,10,7,1,,0.00,0,,180
2011-10-30,68,52,37,44,38,32,96,65,27,30.25,30.18,30.13,10,10,10,6,1,,0.00,0,,147
2011-10-31,75,57,41,48,42,36,100,70,26,30.25,30.19,30.14,10,9,1,6,0,,0.00,0,,137